Savanna, IL

5:40 PM CST on February 06, 2016 (GMT -0600)
Tri-Township | | Change Station
CLOSE
Current Station
Airport
Location: Savanna,
Elevation: 617 ft
Nearby Weather Stations

Elev 617 ft 42.05 °N, 90.11 °W | Updated 25 minutes ago

Overcast
Overcast
32 °F
Feels Like 32 °F
N
0
Wind Variable Wind from North

Today
High -- | Low -- °F
--% Chance of Precip.
Yesterday
High -- | Low -- °F
Precip. -- in
Pressure 30.15 in
Visibility 10.0 miles
Clouds Clear
Dew Point 28 °F
Humidity 86%
Rainfall 0.00 in
Snow Depth Not available.
7:08 AM 5:21 PM
Waning Crescent, 3% visible
METAR KSFY 062315Z AUTO 00000KT 10SM CLR 00/M02 A3015 RMK AO2 T00001021
Pressure 30.15 in
Visibility 10.0 miles
Clouds Clear
Dew Point 28 °F
Humidity 86%
Rainfall 0.00 in
Snow Depth Not available.
7:08 AM 5:21 PM
Waning Crescent, 3% visible
METAR KSFY 062315Z AUTO 00000KT 10SM CLR 00/M02 A3015 RMK AO2 T00001021

10-Day Weather Forecast

Almanac

Astronomy

Feb. 06, 2016 Rise Set
Actual Time
Civil Twilight
Nautical Twilight
Astronomical Twilight
Moon
Length of Visible Light
Length of Day
Tomorrow will be .
, % of the Moon is Illuminated

Today's Extremes

State Highs State Lows

Community

WunderPhotos

Upload Photos

1,891,098 photos uploaded!

WunderBlog® & News

Nearby

Air Quality

  Air Quality AQ Index Pollutant
Not available.

Snow Depth

Station Depth Elevation

Earthquake Activity

City Distance Mag. Time & Date
Minimum magnitude displayed is 2.5.

Coastal Water Temperatures

Place Temperature

Stations

Nearby Weather Stations

Station Location Temp. Windchill Dew Point Humidity Wind Precip. Elev Updated Type
                   

Watches & Warnings

There are currently no watches in effect.